Time;durP1;ratioP1;P1;durP2;ratioP2;P2;SDS_P1;SDS_P2;PMS_P1;PMS_P2;Temp;Humidity;BMP_temperature;BMP_pressure;BME280_temperature;BME280_humidity;BME280_pressure;Samples;Min_cycle;Max_cycle;Signal;HPM_P1;HPM_P2
2022/08/16 00:01:58;;;;;;;3.22;2.92;;;;;;;19.72;66.45;100505.28;5014942;28;20084;-83
2022/08/16 00:04:23;;;;;;;3.07;2.73;;;;;;;19.68;66.66;100509.03;5016088;28;20050;-84
2022/08/16 00:06:49;;;;;;;3.70;2.80;;;;;;;19.63;66.82;100511.09;5016122;28;20053;-83
2022/08/16 00:09:14;;;;;;;3.03;2.73;;;;;;;19.58;66.87;100510.53;5015204;28;20200;-83
2022/08/16 00:11:42;;;;;;;3.03;2.73;;;;;;;19.52;67.04;100514.34;5015979;28;20030;-84
2022/08/16 00:14:11;;;;;;;3.25;2.70;;;;;;;19.47;66.96;100507.66;5015516;28;20092;-84
2022/08/16 00:16:37;;;;;;;2.80;2.60;;;;;;;19.42;67.49;100508.75;5013923;28;20116;-83
2022/08/16 00:19:03;;;;;;;3.00;2.67;;;;;;;19.40;67.14;100512.44;5015484;28;20057;-83
2022/08/16 00:21:29;;;;;;;3.08;2.72;;;;;;;19.34;67.11;100502.28;5021040;28;20056;-84
2022/08/16 00:23:55;;;;;;;3.00;2.70;;;;;;;19.31;67.84;100511.16;5034725;28;20555;-83
2022/08/16 00:26:20;;;;;;;2.80;2.60;;;;;;;19.25;67.69;100509.72;5035488;28;20026;-84
2022/08/16 00:28:46;;;;;;;3.03;2.70;;;;;;;19.22;67.82;100512.56;5035258;28;20091;-83
2022/08/16 00:31:11;;;;;;;4.43;2.60;;;;;;;19.16;68.01;100514.69;5034419;28;20098;-83
2022/08/16 00:33:36;;;;;;;3.10;2.80;;;;;;;19.13;67.94;100516.56;5035123;28;20029;-84
2022/08/16 00:36:02;;;;;;;3.30;2.70;;;;;;;19.11;68.23;100518.41;5033219;28;20381;-83
2022/08/16 00:38:40;;;;;;;4.03;2.90;;;;;;;19.07;67.91;100523.94;5034345;28;20030;-84
2022/08/16 00:41:09;;;;;;;3.05;2.75;;;;;;;19.01;68.42;100514.63;5035146;28;20026;-83
2022/08/16 00:43:35;;;;;;;4.13;2.90;;;;;;;19.00;68.23;100525.22;5035162;28;20022;-84
2022/08/16 00:46:20;;;;;;;3.33;2.83;;;;;;;18.96;68.77;100517.50;5034230;28;20049;-83
2022/08/16 00:48:47;;;;;;;3.95;2.90;;;;;;;18.91;68.67;100516.91;5035395;28;20025;-84
2022/08/16 00:51:14;;;;;;;;;;;;;;;18.86;68.74;100529.44;5034224;28;20033;-83
2022/08/16 00:53:39;;;;;;;3.80;2.90;;;;;;;18.82;68.73;100522.63;5035247;28;19920;-83
2022/08/16 00:56:08;;;;;;;3.37;2.87;;;;;;;18.80;68.97;100529.78;5034653;28;20018;-83
2022/08/16 00:58:41;;;;;;;3.15;2.80;;;;;;;18.78;68.77;100529.03;5034016;28;20031;-83
2022/08/16 01:01:07;;;;;;;3.35;2.83;;;;;;;18.74;68.81;100524.84;5034573;28;20025;-83
2022/08/16 01:03:34;;;;;;;3.10;2.80;;;;;;;18.70;68.66;100525.94;5034563;28;20418;-83
2022/08/16 01:06:00;;;;;;;2.83;2.60;;;;;;;18.67;69.02;100526.97;5015320;28;20149;-83
2022/08/16 01:08:26;;;;;;;2.90;2.70;;;;;;;18.64;69.07;100527.13;5015063;28;20037;-83
2022/08/16 01:10:52;;;;;;;3.17;2.80;;;;;;;18.61;69.09;100527.31;5014582;28;20469;-83
2022/08/16 01:13:22;;;;;;;3.03;2.70;;;;;;;18.58;69.33;100522.22;5013912;28;20065;-83
2022/08/16 01:15:57;;;;;;;3.80;2.95;;;;;;;18.54;69.29;100524.16;5015218;28;20045;-84
2022/08/16 01:18:27;;;;;;;3.40;3.10;;;;;;;18.51;68.94;100527.81;5014813;28;20057;-84
2022/08/16 01:21:10;;;;;;;3.42;3.10;;;;;;;18.50;69.30;100523.47;5013753;28;20113;-84
2022/08/16 01:23:53;;;;;;;6.55;3.17;;;;;;;18.46;69.62;100524.56;5015882;28;20045;-83
2022/08/16 01:26:19;;;;;;;3.13;2.70;;;;;;;18.43;69.04;100529.13;5014054;28;20545;-83
2022/08/16 01:28:46;;;;;;;3.30;2.97;;;;;;;18.38;69.81;100524.13;5014214;28;20028;-84
2022/08/16 01:31:13;;;;;;;3.15;2.83;;;;;;;18.34;69.59;100528.72;5014306;28;20072;-84
2022/08/16 01:33:39;;;;;;;3.88;2.85;;;;;;;18.33;69.82;100516.50;5019703;28;20053;-84
2022/08/16 01:36:08;;;;;;;3.20;2.90;;;;;;;18.32;69.86;100529.69;5033732;28;20064;-83
2022/08/16 01:38:39;;;;;;;3.35;2.90;;;;;;;18.29;69.88;100516.75;5034321;28;20041;-83
2022/08/16 01:41:12;;;;;;;3.10;2.70;;;;;;;18.27;70.07;100521.22;5033145;28;20021;-83
2022/08/16 01:43:40;;;;;;;3.63;3.00;;;;;;;18.25;70.13;100517.81;5034421;28;20033;-83
2022/08/16 01:46:09;;;;;;;3.28;2.70;;;;;;;18.20;70.29;100518.06;5033687;28;20030;-83
2022/08/16 01:48:34;;;;;;;3.50;3.17;;;;;;;18.15;70.00;100520.94;5018817;28;20120;-83
2022/08/16 01:51:01;;;;;;;3.43;3.00;;;;;;;18.14;70.27;100528.88;5013630;28;20060;-84
2022/08/16 01:53:28;;;;;;;4.30;2.97;;;;;;;18.12;70.26;100525.50;5013920;28;20467;-84
2022/08/16 01:55:53;;;;;;;;;;;;;;;18.09;70.51;100520.41;5013578;28;20041;-84
2022/08/16 01:58:20;;;;;;;3.83;3.13;;;;;;;18.05;70.75;100523.19;5013954;28;19913;-83
2022/08/16 02:00:46;;;;;;;4.25;3.10;;;;;;;18.01;70.68;100518.19;5013886;28;20449;-83
2022/08/16 02:03:13;;;;;;;2.80;2.60;;;;;;;17.97;71.13;100522.75;5031289;28;20025;-83
2022/08/16 02:05:39;;;;;;;3.92;3.00;;;;;;;17.94;70.86;100524.66;5033566;28;20068;-83
2022/08/16 02:08:05;;;;;;;;;;;;;;;17.90;70.88;100529.22;5033793;28;20104;-83
2022/08/16 02:10:30;;;;;;;3.20;2.90;;;;;;;17.87;71.57;100527.56;5032983;28;19944;-83
2022/08/16 02:12:56;;;;;;;3.70;2.67;;;;;;;17.86;72.62;100525.88;5033384;28;20385;-83
2022/08/16 02:15:24;;;;;;;3.73;2.67;;;;;;;17.81;71.56;100524.41;5033367;28;20105;-83
2022/08/16 02:17:49;;;;;;;2.92;2.63;;;;;;;17.78;71.98;100527.22;5013326;28;20076;-83
2022/08/16 02:20:16;;;;;;;2.90;2.60;;;;;;;17.76;72.63;100527.28;5025305;28;20033;-84
2022/08/16 02:22:41;;;;;;;4.78;3.30;;;;;;;17.72;74.15;100523.13;5032787;28;20362;-83
2022/08/16 02:25:11;;;;;;;3.67;2.87;;;;;;;17.70;75.15;100524.97;5033314;28;20044;-84
2022/08/16 02:27:41;;;;;;;4.72;3.45;;;;;;;17.67;74.26;100525.97;5033292;28;20021;-84
2022/08/16 02:30:13;;;;;;;3.97;3.13;;;;;;;17.66;73.83;100519.03;5022679;28;20033;-83
2022/08/16 02:32:38;;;;;;;3.10;2.80;;;;;;;17.65;72.88;100524.34;5013588;28;20113;-84
2022/08/16 02:35:04;;;;;;;3.33;3.03;;;;;;;17.65;73.19;100521.72;5013255;28;20044;-83
2022/08/16 02:37:29;;;;;;;3.20;2.90;;;;;;;17.64;73.63;100526.13;5012530;28;20041;-84
2022/08/16 02:39:55;;;;;;;3.10;2.80;;;;;;;17.63;73.21;100523.56;5012458;28;20076;-83
2022/08/16 02:42:20;;;;;;;2.90;2.60;;;;;;;17.62;75.24;100521.88;5020658;28;20496;-84
2022/08/16 02:44:45;;;;;;;2.60;2.40;;;;;;;17.61;74.82;100523.66;5031901;28;20029;-84
2022/08/16 02:47:11;;;;;;;2.87;2.57;;;;;;;17.63;73.44;100518.31;5032248;28;20047;-84
2022/08/16 02:49:36;;;;;;;2.67;2.47;;;;;;;17.64;73.98;100525.25;5033232;28;20026;-84
2022/08/16 02:52:01;;;;;;;2.80;2.60;;;;;;;17.63;73.65;100516.56;5032069;28;20025;-83
2022/08/16 02:54:27;;;;;;;2.90;2.60;;;;;;;17.62;73.02;100519.25;5032561;28;20032;-84
2022/08/16 02:56:53;;;;;;;2.70;2.50;;;;;;;17.62;72.85;100519.25;5031117;28;20030;-83
2022/08/16 02:59:18;;;;;;;2.97;2.67;;;;;;;17.59;73.11;100513.25;5032117;28;20071;-83
2022/08/16 03:01:43;;;;;;;3.10;2.80;;;;;;;17.58;73.55;100518.53;5032809;28;20037;-83
2022/08/16 03:04:09;;;;;;;3.00;2.70;;;;;;;17.57;73.25;100519.47;5032413;28;20033;-83
2022/08/16 03:06:35;;;;;;;3.07;2.60;;;;;;;17.53;73.71;100512.69;5031943;28;20422;-84
2022/08/16 03:09:00;;;;;;;2.83;2.53;;;;;;;17.50;73.44;100507.59;5022723;28;20041;-84
2022/08/16 03:11:27;;;;;;;2.90;2.60;;;;;;;17.47;75.36;100513.84;5012928;28;20018;-83
2022/08/16 03:13:53;;;;;;;3.35;2.60;;;;;;;17.44;73.75;100508.75;5011950;28;20026;-83
2022/08/16 03:16:20;;;;;;;;;;;;;;;17.43;73.51;100514.91;5013411;28;20018;-84
2022/08/16 03:18:45;;;;;;;;;;;;;;;17.41;74.17;100515.00;5013045;28;20378;-84
2022/08/16 03:21:11;;;;;;;3.67;2.90;;;;;;;17.38;75.06;100515.13;5011948;28;19913;-83
2022/08/16 03:23:37;;;;;;;;;;;;;;;17.37;73.81;100505.56;5025214;28;20497;-84
2022/08/16 03:26:03;;;;;;;3.13;2.80;;;;;;;17.36;74.20;100495.16;5031574;28;19913;-83
2022/08/16 03:28:28;;;;;;;3.97;2.83;;;;;;;17.36;73.91;100505.66;5032789;28;20183;-83
2022/08/16 03:30:53;;;;;;;3.03;2.60;;;;;;;17.36;74.57;100506.50;5031806;28;20033;-83
2022/08/16 03:33:19;;;;;;;3.00;2.70;;;;;;;17.34;73.90;100503.09;5032025;28;20421;-83
2022/08/16 03:35:44;;;;;;;2.97;2.67;;;;;;;17.31;74.21;100510.25;5032301;28;20028;-84
2022/08/16 03:38:13;;;;;;;2.87;2.60;;;;;;;17.29;74.26;100513.81;5018086;28;20482;-84
2022/08/16 03:40:39;;;;;;;2.75;2.55;;;;;;;17.28;75.91;100512.09;5011976;28;20030;-83
2022/08/16 03:43:08;;;;;;;4.60;3.33;;;;;;;17.25;74.60;100517.53;5012622;28;20386;-84
2022/08/16 03:45:34;;;;;;;3.55;3.10;;;;;;;17.25;75.45;100519.28;5012895;28;20022;-84
2022/08/16 03:48:01;;;;;;;3.40;3.10;;;;;;;17.20;75.62;100516.88;5011923;28;20437;-83
2022/08/16 03:50:27;;;;;;;3.63;2.97;;;;;;;17.18;76.20;100525.75;5013374;28;20030;-84
2022/08/16 03:52:53;;;;;;;3.40;2.72;;;;;;;17.18;75.83;100526.59;5034051;28;20029;-84
2022/08/16 03:55:18;;;;;;;3.10;2.80;;;;;;;17.17;75.10;100538.00;5035627;28;20031;-84
2022/08/16 03:57:44;;;;;;;4.93;3.40;;;;;;;17.16;77.20;100535.47;5036239;28;20037;-84
2022/08/16 04:00:16;;;;;;;4.03;3.10;;;;;;;17.16;76.83;100541.56;5035892;28;20025;-84
2022/08/16 04:02:43;;;;;;;3.85;3.20;;;;;;;17.14;76.01;100535.53;5035287;28;20017;-84
2022/08/16 04:05:10;;;;;;;5.25;3.50;;;;;;;17.14;76.64;100546.03;5031130;28;20447;-84
2022/08/16 04:07:36;;;;;;;3.65;3.00;;;;;;;17.14;75.87;100544.25;5016124;28;20022;-83
2022/08/16 04:10:04;;;;;;;3.10;2.77;;;;;;;17.17;76.43;100547.66;5015137;28;20026;-84
2022/08/16 04:12:30;;;;;;;2.60;2.40;;;;;;;17.18;75.71;100552.81;5015963;28;20049;-84
2022/08/16 04:14:55;;;;;;;3.13;2.63;;;;;;;17.19;75.68;100556.31;5015645;28;20021;-84
2022/08/16 04:17:20;;;;;;;3.03;2.73;;;;;;;17.18;76.09;100555.44;5015072;28;20026;-84
2022/08/16 04:19:46;;;;;;;2.87;2.63;;;;;;;17.16;76.93;100549.44;5024533;28;20041;-84
2022/08/16 04:22:11;;;;;;;2.43;2.23;;;;;;;17.13;76.34;100557.44;5034601;28;20073;-83
2022/08/16 04:24:52;;;;;;;3.20;2.90;;;;;;;17.10;77.05;100555.81;5035436;28;20041;-84
2022/08/16 04:27:18;;;;;;;2.65;2.45;;;;;;;17.10;76.63;100552.34;5035287;28;20064;-84
2022/08/16 04:29:43;;;;;;;2.40;2.20;;;;;;;17.06;77.05;100554.25;5034834;28;20057;-84
2022/08/16 04:32:08;;;;;;;2.30;2.10;;;;;;;17.04;77.10;100557.88;5035065;28;20536;-84
2022/08/16 04:34:46;;;;;;;2.17;2.07;;;;;;;17.01;77.13;100558.03;5019848;28;20030;-84
2022/08/16 04:37:11;;;;;;;1.98;1.77;;;;;;;16.98;77.28;100548.53;5014868;28;20029;-84
2022/08/16 04:39:37;;;;;;;2.30;2.10;;;;;;;16.98;77.86;100548.53;5015304;28;20025;-85
2022/08/16 04:42:11;;;;;;;6.30;3.00;;;;;;;16.95;78.32;100546.03;5015411;28;20048;-84
2022/08/16 04:44:36;;;;;;;6.40;3.90;;;;;;;16.95;80.04;100553.91;5014815;28;20021;-84
2022/08/16 04:47:02;;;;;;;4.23;3.20;;;;;;;16.94;78.39;100549.59;5015045;28;20029;-84
2022/08/16 04:49:27;;;;;;;3.00;2.70;;;;;;;16.98;77.86;100548.53;5016496;28;20103;-84
2022/08/16 04:52:05;;;;;;;3.30;2.70;;;;;;;17.02;77.07;100563.19;5014176;28;20538;-85
2022/08/16 04:54:31;;;;;;;3.22;2.85;;;;;;;17.04;78.00;100555.25;5014983;28;20386;-84
2022/08/16 04:57:09;;;;;;;4.23;3.10;;;;;;;17.06;78.35;100558.63;5015138;28;20025;-84
2022/08/16 04:59:34;;;;;;;4.15;2.97;;;;;;;17.07;79.09;100566.44;5015772;28;20022;-86
2022/08/16 05:02:00;;;;;;;3.87;3.00;;;;;;;17.10;77.11;100562.81;5019727;28;20025;-86
2022/08/16 05:04:25;;;;;;;3.80;2.90;;;;;;;17.12;77.47;100566.22;5033585;28;20152;-85
2022/08/16 05:06:51;;;;;;;3.73;3.00;;;;;;;17.16;77.85;100564.31;5034264;28;20136;-83
2022/08/16 05:09:17;;;;;;;2.60;2.40;;;;;;;17.18;78.23;100560.69;5034994;28;20033;-83
2022/08/16 05:11:44;;;;;;;4.25;3.00;;;;;;;17.21;77.54;100559.72;5034117;28;20873;-84
2022/08/16 05:14:09;;;;;;;3.45;2.92;;;;;;;17.24;78.46;100570.03;5032213;28;20036;-83
2022/08/16 05:16:34;;;;;;;3.47;2.90;;;;;;;17.23;77.38;100576.19;5034564;28;20021;-83
2022/08/16 05:19:03;;;;;;;3.37;2.93;;;;;;;17.24;78.13;100565.66;5033587;28;20018;-83
2022/08/16 05:21:30;;;;;;;2.58;2.30;;;;;;;17.28;78.47;100572.44;5034483;28;20032;-83
2022/08/16 05:23:55;;;;;;;;;;;;;;;17.34;77.80;100578.31;5034747;28;20435;-83
2022/08/16 05:26:21;;;;;;;2.63;2.40;;;;;;;17.35;77.27;100583.47;5033116;28;20007;-83
2022/08/16 05:28:47;;;;;;;2.80;2.53;;;;;;;17.41;77.96;100588.44;5034497;28;20034;-83
2022/08/16 05:31:15;;;;;;;2.80;2.50;;;;;;;17.46;77.21;100593.47;5034087;28;20052;-83
2022/08/16 05:33:40;;;;;;;2.42;2.22;;;;;;;17.52;77.16;100589.69;5033327;28;20041;-83
2022/08/16 05:36:06;;;;;;;3.50;2.80;;;;;;;17.57;78.26;100591.19;5032207;28;20029;-83
2022/08/16 05:38:31;;;;;;;2.90;2.60;;;;;;;17.61;77.73;100591.88;5034106;28;20053;-83
2022/08/16 05:40:57;;;;;;;3.63;2.50;;;;;;;17.67;77.68;100593.34;5020272;28;20037;-84
2022/08/16 05:43:23;;;;;;;2.97;2.63;;;;;;;17.72;77.92;100592.19;5014407;28;20049;-83
2022/08/16 05:45:49;;;;;;;3.77;3.00;;;;;;;17.78;78.78;100593.66;5014242;28;20546;-83
2022/08/16 05:48:14;;;;;;;3.75;3.00;;;;;;;17.83;78.24;100606.56;5013406;28;20032;-82
2022/08/16 05:50:39;;;;;;;4.00;3.20;;;;;;;17.86;78.03;100604.63;5014433;28;20112;-83
2022/08/16 05:53:05;;;;;;;3.97;2.90;;;;;;;17.93;77.37;100609.59;5013677;28;20046;-83
2022/08/16 05:55:30;;;;;;;3.20;2.63;;;;;;;17.98;77.72;100605.84;5027722;28;20052;-83
2022/08/16 05:57:55;;;;;;;3.00;2.70;;;;;;;18.04;79.19;100612.56;5033294;28;20025;-83
2022/08/16 06:00:21;;;;;;;3.67;3.03;;;;;;;18.08;77.79;100608.00;5033424;28;20034;-84
2022/08/16 06:02:46;;;;;;;4.20;3.50;;;;;;;18.12;78.17;100609.53;5033102;28;20068;-81
2022/08/16 06:05:12;;;;;;;7.07;4.53;;;;;;;18.16;78.47;100601.44;5032552;28;20057;-81
2022/08/16 06:07:37;;;;;;;6.77;3.73;;;;;;;18.21;78.50;100609.06;5033103;28;20159;-80
2022/08/16 06:10:04;;;;;;;5.60;4.10;;;;;;;18.27;78.55;100611.38;5014953;28;20026;-80
2022/08/16 06:12:30;;;;;;;4.60;3.65;;;;;;;18.34;78.15;100619.78;5013886;28;20020;-82
2022/08/16 06:14:57;;;;;;;6.33;4.40;;;;;;;18.41;79.04;100625.56;5012090;28;20032;-82
2022/08/16 06:17:23;;;;;;;6.45;3.63;;;;;;;18.46;77.41;100616.53;5013524;28;20355;-82
2022/08/16 06:19:49;;;;;;;7.15;4.30;;;;;;;18.50;78.07;100620.72;5013715;28;20056;-81
2022/08/16 06:22:14;;;;;;;5.43;4.03;;;;;;;18.57;77.80;100626.50;5012892;28;20100;-82
2022/08/16 06:24:39;;;;;;;5.03;3.83;;;;;;;18.66;76.26;100623.38;5014681;28;20109;-83
2022/08/16 06:27:05;;;;;;;5.70;4.10;;;;;;;18.70;77.11;100629.31;5013188;28;20072;-82
2022/08/16 06:29:30;;;;;;;5.10;3.90;;;;;;;18.76;77.01;100630.78;5012742;28;20029;-82
2022/08/16 06:31:55;;;;;;;5.80;4.27;;;;;;;18.81;77.54;100633.97;5013026;28;20049;-82
2022/08/16 06:34:21;;;;;;;5.93;4.27;;;;;;;18.89;76.94;100639.72;5013390;28;20028;-82
2022/08/16 06:36:46;;;;;;;4.90;3.73;;;;;;;18.95;77.10;100638.56;5012604;28;20029;-82
2022/08/16 06:39:11;;;;;;;5.80;4.40;;;;;;;19.02;76.16;100634.66;5014959;28;20061;-84
2022/08/16 06:41:37;;;;;;;5.70;4.10;;;;;;;19.09;76.59;100641.28;5013445;28;20033;-86
2022/08/16 06:44:03;;;;;;;6.93;5.10;;;;;;;19.16;75.91;100627.81;5012146;28;20468;-83
2022/08/16 06:46:33;;;;;;;5.38;4.38;;;;;;;19.23;76.07;100632.66;5013189;28;20053;-84
2022/08/16 06:49:03;;;;;;;7.90;5.15;;;;;;;19.31;75.82;100632.19;5013111;28;20079;-83
2022/08/16 06:51:29;;;;;;;5.80;4.10;;;;;;;19.38;75.89;100636.22;5012278;28;20029;-83
2022/08/16 06:53:54;;;;;;;12.07;7.37;;;;;;;19.45;75.36;100634.91;5013572;28;20025;-90
2022/08/16 06:56:19;;;;;;;10.40;6.90;;;;;;;19.52;74.97;100632.78;5013316;28;20382;-87
2022/08/16 06:58:44;;;;;;;11.27;6.97;;;;;;;19.81;76.06;100638.19;5012794;28;20030;-87
2022/08/16 07:01:10;;;;;;;10.83;6.60;;;;;;;21.41;74.79;100637.38;5012802;28;20060;-88
2022/08/16 07:03:38;;;;;;;7.87;5.03;;;;;;;23.79;71.25;100645.00;5013521;28;20072;-87
2022/08/16 07:06:03;;;;;;;9.27;6.05;;;;;;;26.00;57.94;100646.28;5027132;28;20433;-86
2022/08/16 07:08:29;;;;;;;7.93;5.43;;;;;;;27.51;60.99;100644.84;5032827;28;20029;-86
2022/08/16 07:10:55;;;;;;;9.40;6.20;;;;;;;28.90;49.72;100651.66;5032504;28;20026;-84
2022/08/16 07:13:20;;;;;;;7.68;4.75;;;;;;;29.73;54.20;100643.50;5032266;28;20272;-84
2022/08/16 07:15:48;;;;;;;6.73;5.13;;;;;;;30.30;51.85;100647.63;5032644;28;20532;-85
2022/08/16 07:18:14;;;;;;;6.07;4.63;;;;;;;30.33;51.04;100650.00;5031838;28;20156;-82
2022/08/16 07:20:40;;;;;;;4.90;3.90;;;;;;;29.98;50.18;100657.13;5032703;28;20033;-83
2022/08/16 07:23:06;;;;;;;4.95;3.90;;;;;;;29.21;50.12;100654.00;5025619;28;20022;-83
2022/08/16 07:25:32;;;;;;;4.32;3.90;;;;;;;28.38;52.30;100655.59;5012743;28;20496;-81
2022/08/16 07:27:58;;;;;;;;;;;;;;;27.60;52.70;100651.19;5016887;28;20026;-82
2022/08/16 07:30:24;;;;;;;3.95;3.50;;;;;;;26.87;53.70;100665.56;5016687;28;20342;-82
2022/08/16 07:32:50;;;;;;;8.13;5.72;;;;;;;26.04;55.38;100662.81;5019691;28;20032;-85
2022/08/16 07:35:16;;;;;;;6.32;4.60;;;;;;;25.46;56.61;100663.16;5036411;28;20018;-85
2022/08/16 07:37:41;;;;;;;6.85;4.68;;;;;;;25.06;59.07;100662.72;5035812;28;20029;-85
2022/08/16 07:40:07;;;;;;;5.65;4.20;;;;;;;24.77;60.15;100671.16;5035325;28;20381;-84
2022/08/16 07:42:33;;;;;;;10.15;6.25;;;;;;;24.51;57.20;100674.03;5035988;28;20478;-86
2022/08/16 07:44:58;;;;;;;8.33;5.53;;;;;;;24.33;59.90;100670.13;5035785;28;20030;-86
2022/08/16 07:47:24;;;;;;;8.33;5.63;;;;;;;24.23;59.92;100672.63;5035550;28;20025;-85
2022/08/16 07:49:49;;;;;;;9.40;6.05;;;;;;;24.10;60.78;100677.19;5036083;28;20554;-86
2022/08/16 07:52:14;;;;;;;9.60;6.33;;;;;;;23.99;61.09;100672.66;5036045;28;20017;-85
2022/08/16 07:54:40;;;;;;;8.50;5.10;;;;;;;23.90;61.60;100679.50;5035223;28;20022;-85
2022/08/16 07:57:05;;;;;;;6.85;5.18;;;;;;;23.86;61.22;100672.72;5035153;28;20037;-85
2022/08/16 07:59:30;;;;;;;5.37;4.20;;;;;;;23.84;62.10;100677.28;5035754;28;20156;-85
2022/08/16 08:01:56;;;;;;;5.27;4.13;;;;;;;23.83;61.40;100676.44;5034468;28;20033;-84
2022/08/16 08:04:21;;;;;;;6.45;4.60;;;;;;;23.87;61.57;100677.88;5034342;28;20097;-85
2022/08/16 08:06:47;;;;;;;5.17;4.20;;;;;;;23.92;62.16;100669.63;5035587;28;20056;-85
2022/08/16 08:09:12;;;;;;;6.53;4.90;;;;;;;23.97;60.51;100672.78;5034674;28;20022;-84
2022/08/16 08:11:38;;;;;;;5.87;4.60;;;;;;;23.99;61.19;100678.84;5035510;28;20091;-85
2022/08/16 08:14:03;;;;;;;4.83;4.13;;;;;;;24.08;60.81;100689.69;5035411;28;20029;-85
2022/08/16 08:16:30;;;;;;;4.85;3.95;;;;;;;24.12;61.67;100691.16;5032996;28;20512;-85
2022/08/16 08:18:55;;;;;;;5.97;4.30;;;;;;;24.23;60.50;100693.00;5035389;28;20029;-86
2022/08/16 08:21:23;;;;;;;4.03;3.60;;;;;;;24.30;60.19;100694.25;5035270;28;20026;-85
2022/08/16 08:23:49;;;;;;;6.78;4.82;;;;;;;24.34;60.15;100695.69;5035039;28;20052;-85
2022/08/16 08:26:14;;;;;;;6.63;4.63;;;;;;;24.38;59.95;100699.78;5035501;28;20017;-86
2022/08/16 08:28:40;;;;;;;6.13;4.17;;;;;;;24.42;59.77;100690.66;5034552;28;20417;-85
2022/08/16 08:31:06;;;;;;;6.25;4.72;;;;;;;24.52;58.53;100688.97;5033254;28;20036;-86
2022/08/16 08:33:31;;;;;;;8.63;5.90;;;;;;;24.60;57.37;100695.50;5035460;28;20056;-85
2022/08/16 08:36:02;;;;;;;7.07;4.70;;;;;;;24.66;58.46;100692.34;5034323;28;20057;-85
2022/08/16 08:38:31;;;;;;;5.72;4.05;;;;;;;24.78;58.58;100695.91;5032670;28;20299;-84
2022/08/16 08:40:57;;;;;;;7.82;5.10;;;;;;;24.88;57.33;100693.38;5034882;28;20029;-85
2022/08/16 08:43:22;;;;;;;6.00;4.70;;;;;;;24.96;56.64;100698.94;5031527;28;20028;-85
2022/08/16 08:45:48;;;;;;;5.90;4.57;;;;;;;25.00;55.38;100697.72;5015406;28;20441;-85
2022/08/16 08:48:13;;;;;;;6.03;4.55;;;;;;;25.07;56.70;100693.63;5014819;28;20117;-85
2022/08/16 08:50:40;;;;;;;4.20;3.78;;;;;;;25.16;56.94;100704.47;5014430;28;20425;-86
2022/08/16 08:53:05;;;;;;;4.38;3.60;;;;;;;25.27;56.43;100707.97;5014822;28;20022;-86
2022/08/16 08:55:30;;;;;;;6.10;4.43;;;;;;;25.36;52.73;100703.72;5018066;28;20025;-85
2022/08/16 08:57:56;;;;;;;5.47;4.10;;;;;;;25.40;54.85;100707.84;5033685;28;20032;-86
2022/08/16 09:00:23;;;;;;;7.43;5.25;;;;;;;25.39;54.68;100700.81;5034671;28;20021;-85
2022/08/16 09:02:50;;;;;;;5.68;4.70;;;;;;;25.49;54.29;100714.25;5034713;28;20359;-87
2022/08/16 09:05:16;;;;;;;4.68;3.95;;;;;;;25.61;54.30;100696.44;5033992;28;20128;-85
2022/08/16 09:07:43;;;;;;;7.82;5.63;;;;;;;25.70;53.41;100708.16;5033099;28;20021;-86
2022/08/16 09:10:08;;;;;;;6.30;4.70;;;;;;;25.77;52.12;100705.84;5034320;28;20048;-86
2022/08/16 09:12:34;;;;;;;7.60;5.57;;;;;;;25.75;51.70;100701.50;5033178;28;20398;-85
2022/08/16 09:14:59;;;;;;;;;;;;;;;25.88;53.73;100709.28;5034876;28;20028;-84
2022/08/16 09:17:26;;;;;;;7.30;4.83;;;;;;;26.00;50.59;100710.09;5034363;28;19913;-85
2022/08/16 09:19:54;;;;;;;5.30;4.38;;;;;;;26.08;52.43;100713.94;5033470;28;20638;-86
2022/08/16 09:22:20;;;;;;;5.03;4.07;;;;;;;26.14;51.55;100718.75;5028755;28;20025;-85
2022/08/16 09:24:45;;;;;;;6.88;4.20;;;;;;;26.21;51.35;100722.59;5013636;28;20026;-84
2022/08/16 09:27:11;;;;;;;5.13;4.20;;;;;;;26.27;50.27;100707.94;5014131;28;20080;-84
2022/08/16 09:29:36;;;;;;;8.37;5.30;;;;;;;26.38;50.29;100720.31;5014573;28;20025;-85
2022/08/16 09:32:02;;;;;;;6.27;4.70;;;;;;;26.47;50.91;100720.41;5013406;28;20072;-84
2022/08/16 09:34:28;;;;;;;6.45;4.35;;;;;;;26.61;50.91;100724.53;5014350;28;20053;-85
2022/08/16 09:36:56;;;;;;;5.72;4.72;;;;;;;26.74;49.86;100712.84;5019337;28;20029;-86
2022/08/16 09:39:23;;;;;;;5.28;3.90;;;;;;;26.86;49.84;100719.81;5033171;28;20021;-84
2022/08/16 09:41:50;;;;;;;9.07;4.70;;;;;;;26.97;48.62;100717.06;5034290;28;20025;-86
2022/08/16 09:44:16;;;;;;;5.93;4.43;;;;;;;27.05;46.03;100724.38;5034134;28;20056;-85
2022/08/16 09:46:42;;;;;;;5.72;4.43;;;;;;;27.15;48.49;100727.06;5030987;28;20029;-86
2022/08/16 09:49:07;;;;;;;6.07;4.50;;;;;;;27.21;48.72;100723.00;5032662;28;20194;-85
2022/08/16 09:51:32;;;;;;;5.67;4.30;;;;;;;27.30;46.08;100716.88;5027288;28;20030;-85
2022/08/16 09:53:57;;;;;;;5.63;3.90;;;;;;;27.46;47.71;100720.88;5012829;28;20096;-86
2022/08/16 09:56:32;;;;;;;4.20;3.80;;;;;;;27.52;47.58;100715.84;5013989;28;20386;-85
2022/08/16 09:59:00;;;;;;;4.18;3.65;;;;;;;27.65;43.49;100714.72;5013834;28;20133;-85
2022/08/16 10:01:25;;;;;;;4.07;3.67;;;;;;;27.74;46.22;100720.09;5013312;28;20474;-85
2022/08/16 10:03:51;;;;;;;;;;;;;;;27.88;46.19;100716.16;5013758;28;20068;-85
2022/08/16 10:06:20;;;;;;;4.78;3.72;;;;;;;27.96;42.74;100717.28;5024138;28;20064;-85
2022/08/16 10:08:47;;;;;;;5.63;4.22;;;;;;;28.00;42.47;100716.84;5033097;28;20386;-85
2022/08/16 10:13:56;;;;;;;4.85;3.50;;;;;;;28.09;44.05;100723.22;5028999;28;20091;-85
2022/08/16 10:16:22;;;;;;;;;;;;;;;28.14;43.58;100715.63;5028720;28;20022;-85
2022/08/16 10:18:47;;;;;;;4.83;4.03;;;;;;;28.20;43.38;100712.38;5032679;28;20380;-84
2022/08/16 10:21:15;;;;;;;4.95;3.55;;;;;;;28.33;43.14;100719.25;5016234;28;20077;-85
2022/08/16 10:23:41;;;;;;;3.50;3.20;;;;;;;28.46;43.74;100721.59;5012503;28;20129;-86
2022/08/16 10:26:07;;;;;;;3.78;3.40;;;;;;;28.55;42.21;100722.59;5012289;28;20118;-85
2022/08/16 10:28:33;;;;;;;;;;;;;;;28.63;42.92;100725.38;5011615;28;20105;-87
2022/08/16 10:31:00;;;;;;;3.33;3.03;;;;;;;28.78;43.17;100723.94;5012023;28;19917;-85
2022/08/16 10:33:27;;;;;;;3.50;3.20;;;;;;;28.91;41.27;100722.78;5012694;28;20038;-84
2022/08/16 10:35:52;;;;;;;3.75;2.92;;;;;;;29.06;41.76;100721.28;5012879;28;20030;-85
2022/08/16 10:38:17;;;;;;;;;;;;;;;29.16;41.85;100729.28;5013215;28;20044;-85
2022/08/16 10:40:43;;;;;;;3.67;3.27;;;;;;;29.06;42.84;100723.97;5013387;28;19917;-85
2022/08/16 10:43:09;;;;;;;3.50;3.15;;;;;;;28.97;39.93;100730.19;5011985;28;20030;-86
2022/08/16 10:45:34;;;;;;;;;;;;;;;28.94;41.70;100728.66;5013439;28;20470;-85
2022/08/16 10:48:00;;;;;;;3.22;2.92;;;;;;;29.07;43.37;100727.50;5013473;28;19913;-86
2022/08/16 10:50:26;;;;;;;;;;;;;;;29.26;39.98;100732.72;5012673;28;20044;-87
2022/08/16 10:52:52;;;;;;;4.72;3.70;;;;;;;29.35;38.54;100728.38;5012553;28;19918;-87
2022/08/16 10:55:19;;;;;;;4.05;3.65;;;;;;;29.43;40.63;100724.94;5013013;28;20050;-85
2022/08/16 10:57:44;;;;;;;4.68;3.63;;;;;;;29.55;40.06;100730.91;5012052;28;20113;-85
2022/08/16 11:00:11;;;;;;;;;;;;;;;29.68;40.97;100725.19;5012688;28;20026;-86
2022/08/16 11:02:38;;;;;;;3.85;3.42;;;;;;;29.80;38.44;100732.00;5013464;28;19913;-84
2022/08/16 11:05:05;;;;;;;3.60;3.30;;;;;;;29.93;41.56;100730.78;5030557;28;20490;-85
2022/08/16 11:07:31;;;;;;;5.22;3.40;;;;;;;30.09;38.92;100732.78;5032913;28;20391;-86
2022/08/16 11:10:00;;;;;;;3.40;3.10;;;;;;;30.18;40.28;100738.06;5032571;28;20021;-84
2022/08/16 11:12:26;;;;;;;3.58;3.28;;;;;;;30.30;39.17;100740.50;5031180;22;20060;-90
2022/08/16 11:14:51;;;;;;;3.78;3.38;;;;;;;30.31;35.26;100737.66;5030475;28;20030;-84
2022/08/16 11:17:17;;;;;;;;;;;;;;;30.20;36.91;100740.56;5032525;28;20032;-85
2022/08/16 11:19:42;;;;;;;5.82;3.70;;;;;;;30.22;35.70;100741.25;5032504;28;20258;-86
2022/08/16 11:22:07;;;;;;;;;;;;;;;30.26;38.67;100734.63;5032607;28;20056;-87
2022/08/16 11:24:33;;;;;;;4.80;3.70;;;;;;;30.20;38.02;100740.56;5032006;28;20432;-85
2022/08/16 11:26:59;;;;;;;3.55;3.25;;;;;;;30.01;38.46;100746.94;5032299;28;20030;-85
2022/08/16 11:29:24;;;;;;;3.03;2.83;;;;;;;29.89;40.35;100744.44;5032577;28;20116;-85